createdAt,value
2016-10-11T00:00:33.411Z,0
2016-10-11T00:01:15.278Z,0
2016-10-11T00:01:57.150Z,0
2016-10-11T00:02:38.999Z,0
2016-10-11T00:03:20.456Z,0
2016-10-11T00:04:02.306Z,0
2016-10-11T00:04:44.133Z,0
2016-10-11T00:05:25.793Z,0
2016-10-11T00:06:07.512Z,0
2016-10-11T00:06:48.813Z,0
2016-10-11T00:09:04.040Z,0
2016-10-11T00:09:45.731Z,0
2016-10-11T00:10:27.514Z,0
2016-10-11T00:11:09.139Z,0
2016-10-11T00:11:50.880Z,0
2016-10-11T00:14:11.647Z,0
2016-10-11T00:14:53.436Z,0
2016-10-11T00:15:35.107Z,0
2016-10-11T00:16:16.504Z,0
2016-10-11T00:16:58.279Z,0
2016-10-11T00:17:40.102Z,0
2016-10-11T00:18:21.827Z,0
2016-10-11T00:19:03.561Z,0
2016-10-11T00:19:45.249Z,0
2016-10-11T00:20:26.811Z,0
2016-10-11T00:22:42.244Z,0
2016-10-11T00:23:23.978Z,0
2016-10-11T00:26:05.558Z,0
2016-10-11T00:26:47.312Z,0
2016-10-11T00:27:28.952Z,0
2016-10-11T00:28:09.503Z,0
2016-10-11T00:28:50.043Z,0
2016-10-11T00:29:31.688Z,0
2016-10-11T00:31:46.286Z,0
2016-10-11T00:32:27.072Z,0
2016-10-11T00:33:08.497Z,0
2016-10-11T00:33:49.035Z,0
2016-10-11T00:34:29.574Z,0
2016-10-11T00:35:10.109Z,0
2016-10-11T00:35:50.638Z,0
2016-10-11T00:36:32.163Z,0
2016-10-11T00:37:13.983Z,0
2016-10-11T00:37:55.605Z,0
2016-10-11T00:40:11.033Z,0
2016-10-11T00:40:52.816Z,0
2016-10-11T00:41:34.551Z,0
2016-10-11T00:42:16.282Z,0
2016-10-11T00:42:57.959Z,0
2016-10-11T00:43:39.653Z,0
2016-10-11T00:46:10.643Z,0
2016-10-11T00:46:52.372Z,0
2016-10-11T00:47:34.102Z,0
2016-10-11T00:48:15.784Z,0
2016-10-11T00:48:57.531Z,0
2016-10-11T00:51:12.980Z,0
2016-10-11T00:51:54.738Z,0
2016-10-11T00:52:36.314Z,0
2016-10-11T00:53:18.092Z,0
2016-10-11T00:53:59.875Z,0
2016-10-11T00:54:41.543Z,0
2016-10-11T00:55:23.269Z,0
2016-10-11T00:57:59.679Z,0
2016-10-11T00:58:41.410Z,0
2016-10-11T00:59:23.208Z,0
2016-10-11T01:00:04.896Z,0
2016-10-11T01:00:46.597Z,0
2016-10-11T01:01:28.242Z,0
2016-10-11T01:02:09.964Z,0
2016-10-11T01:04:39.815Z,0
2016-10-11T01:05:20.336Z,0
2016-10-11T01:06:00.876Z,0
2016-10-11T01:06:41.410Z,0
2016-10-11T01:07:21.953Z,0
2016-10-11T01:08:02.488Z,0
2016-10-11T01:08:43.030Z,0
2016-10-11T01:09:23.569Z,0
2016-10-11T01:10:04.098Z,0
2016-10-11T01:10:44.626Z,0
2016-10-11T01:11:25.161Z,0
2016-10-11T01:12:05.695Z,0
2016-10-11T01:12:46.225Z,0
2016-10-11T01:13:26.757Z,0
2016-10-11T01:14:07.292Z,0
2016-10-11T01:14:47.831Z,0
2016-10-11T01:15:28.363Z,0
2016-10-11T01:16:08.896Z,0
2016-10-11T01:16:49.432Z,0
2016-10-11T01:17:29.982Z,0
2016-10-11T01:18:10.510Z,0
2016-10-11T01:18:51.055Z,0
2016-10-11T01:19:31.583Z,0
2016-10-11T01:20:12.112Z,0
2016-10-11T01:20:52.644Z,0
2016-10-11T01:21:33.177Z,0
2016-10-11T01:22:13.707Z,0
2016-10-11T01:22:54.242Z,0
2016-10-11T01:23:34.779Z,0
2016-10-11T01:24:15.316Z,0
2016-10-11T01:24:55.853Z,0
2016-10-11T01:25:36.391Z,0
2016-10-11T01:26:16.931Z,0
2016-10-11T01:26:57.463Z,0
2016-10-11T01:27:37.989Z,0
2016-10-11T01:28:18.523Z,0
2016-10-11T01:28:59.055Z,0
2016-10-11T01:29:39.595Z,0
2016-10-11T01:30:20.150Z,0
2016-10-11T01:31:00.654Z,0
2016-10-11T01:31:41.189Z,0
2016-10-11T01:32:21.723Z,0
2016-10-11T01:33:02.260Z,0
2016-10-11T01:33:42.791Z,0
2016-10-11T01:34:23.344Z,0
2016-10-11T01:35:03.846Z,0
2016-10-11T01:35:44.384Z,0
2016-10-11T01:36:24.921Z,0
2016-10-11T01:37:05.445Z,0
2016-10-11T01:37:45.982Z,0
2016-10-11T01:38:26.517Z,0
2016-10-11T01:39:07.046Z,0
2016-10-11T01:39:47.584Z,0
2016-10-11T01:40:28.123Z,0
2016-10-11T01:41:08.651Z,0
2016-10-11T01:41:49.194Z,0
2016-10-11T01:42:29.729Z,0
2016-10-11T01:43:10.263Z,0
2016-10-11T01:43:50.803Z,0
2016-10-11T01:44:31.340Z,0
2016-10-11T01:45:11.869Z,0
2016-10-11T01:45:52.405Z,0
2016-10-11T01:46:32.948Z,0
2016-10-11T01:47:13.474Z,0
2016-10-11T01:47:54.005Z,0
2016-10-11T01:48:34.545Z,0
2016-10-11T01:49:15.082Z,0
2016-10-11T01:49:55.619Z,0
2016-10-11T01:50:36.150Z,0
2016-10-11T01:51:16.684Z,0
2016-10-11T01:51:57.219Z,0
2016-10-11T01:52:37.755Z,0
2016-10-11T01:53:18.293Z,0
2016-10-11T01:53:58.828Z,0
2016-10-11T01:54:39.358Z,0
2016-10-11T01:55:19.900Z,0
2016-10-11T01:56:00.422Z,0
2016-10-11T01:56:40.960Z,0
2016-10-11T01:57:21.493Z,0
2016-10-11T01:58:02.015Z,0
2016-10-11T01:58:42.553Z,0
2016-10-11T01:59:23.085Z,0
2016-10-11T02:00:03.607Z,0
2016-10-11T02:00:44.144Z,0
2016-10-11T02:01:24.680Z,0
2016-10-11T02:02:05.207Z,0
2016-10-11T02:02:45.734Z,0
2016-10-11T02:03:26.265Z,0
2016-10-11T02:04:06.804Z,0
2016-10-11T02:04:47.334Z,0
2016-10-11T02:05:27.879Z,0
2016-10-11T02:06:08.407Z,0
2016-10-11T02:06:48.948Z,0
2016-10-11T02:07:29.481Z,0
2016-10-11T02:08:10.018Z,0
2016-10-11T02:08:50.552Z,0
2016-10-11T02:09:31.098Z,0
2016-10-11T02:10:11.635Z,0
2016-10-11T02:10:52.173Z,0
2016-10-11T02:11:32.713Z,0
2016-10-11T02:12:13.243Z,0
2016-10-11T02:12:53.782Z,0
2016-10-11T02:13:34.320Z,0
2016-10-11T02:14:14.856Z,0
2016-10-11T02:14:55.398Z,0
2016-10-11T02:15:35.937Z,0
2016-10-11T02:16:16.466Z,0
2016-10-11T02:16:56.998Z,0
2016-10-11T02:17:37.528Z,0
2016-10-11T02:18:18.065Z,0
2016-10-11T02:18:58.594Z,0
2016-10-11T02:19:39.137Z,0
2016-10-11T02:20:19.680Z,0
2016-10-11T02:21:00.220Z,0
2016-10-11T02:21:40.742Z,0
2016-10-11T02:22:21.276Z,0
2016-10-11T02:23:01.804Z,0
2016-10-11T02:23:42.340Z,0
2016-10-11T02:24:22.877Z,0
2016-10-11T02:25:03.415Z,0
2016-10-11T02:25:43.943Z,0
2016-10-11T02:26:24.480Z,0
2016-10-11T02:27:05.015Z,0
2016-10-11T02:27:45.557Z,0
2016-10-11T02:28:26.094Z,0
2016-10-11T02:29:06.625Z,0
2016-10-11T02:29:47.160Z,0
2016-10-11T02:30:27.696Z,0
2016-10-11T02:31:08.233Z,0
2016-10-11T02:31:48.772Z,0
2016-10-11T02:32:29.307Z,0
2016-10-11T02:33:09.847Z,0
2016-10-11T02:33:50.380Z,0
2016-10-11T02:34:30.929Z,0
2016-10-11T02:35:11.466Z,0
2016-10-11T02:35:51.999Z,0
2016-10-11T02:36:32.531Z,0
2016-10-11T02:37:13.071Z,0
2016-10-11T02:37:53.598Z,0
2016-10-11T02:38:34.136Z,0
2016-10-11T02:39:14.669Z,0
2016-10-11T02:39:55.206Z,0
2016-10-11T02:40:35.740Z,0
2016-10-11T02:41:16.277Z,0
2016-10-11T02:41:56.819Z,0
2016-10-11T02:42:37.356Z,0
2016-10-11T02:43:17.894Z,0
2016-10-11T02:43:58.429Z,0
2016-10-11T02:44:38.959Z,0
2016-10-11T02:45:19.486Z,0
2016-10-11T02:46:00.021Z,0
2016-10-11T02:46:40.553Z,0
2016-10-11T02:47:21.090Z,0
2016-10-11T02:48:01.627Z,0
2016-10-11T02:48:42.162Z,0
2016-10-11T02:49:22.699Z,0
2016-10-11T02:50:03.225Z,0
2016-10-11T02:50:43.752Z,0
2016-10-11T02:51:24.283Z,0
2016-10-11T02:52:04.809Z,0
2016-10-11T02:52:45.348Z,0
2016-10-11T02:53:25.884Z,0
2016-10-11T02:54:06.414Z,0
2016-10-11T02:54:46.958Z,0
2016-10-11T02:55:27.493Z,0
2016-10-11T02:56:08.027Z,0
2016-10-11T02:56:48.564Z,0
2016-10-11T02:57:29.102Z,0
2016-10-11T02:58:09.641Z,0
2016-10-11T02:58:50.184Z,0
2016-10-11T02:59:30.719Z,0
2016-10-11T03:00:11.266Z,0
2016-10-11T03:00:51.784Z,0
2016-10-11T03:01:32.318Z,0
2016-10-11T03:02:12.854Z,0
2016-10-11T03:02:53.390Z,0
2016-10-11T03:03:33.934Z,0
2016-10-11T03:04:14.471Z,0
2016-10-11T03:04:55.013Z,0
2016-10-11T03:05:35.553Z,0
2016-10-11T03:06:16.081Z,0
2016-10-11T03:06:56.617Z,0
2016-10-11T03:07:37.151Z,0
2016-10-11T03:08:17.686Z,0
2016-10-11T03:08:58.225Z,0
2016-10-11T03:09:38.764Z,0
2016-10-11T03:10:19.304Z,0
2016-10-11T03:10:59.832Z,0
2016-10-11T03:11:40.365Z,0
2016-10-11T03:12:20.900Z,0
2016-10-11T03:13:01.442Z,0
2016-10-11T03:13:41.978Z,0
2016-10-11T03:14:22.524Z,0
2016-10-11T03:15:03.057Z,0
2016-10-11T03:15:43.585Z,0
2016-10-11T03:16:24.124Z,0
2016-10-11T03:17:04.655Z,0
2016-10-11T03:17:45.193Z,0
2016-10-11T03:18:25.727Z,0
2016-10-11T03:19:06.262Z,0
2016-10-11T03:19:46.789Z,0
2016-10-11T03:20:27.323Z,0
2016-10-11T03:21:07.942Z,0
2016-10-11T03:21:48.437Z,0
2016-10-11T03:22:28.971Z,0
2016-10-11T03:23:09.501Z,0
2016-10-11T03:23:50.079Z,0
2016-10-11T03:24:30.579Z,0
2016-10-11T03:25:11.135Z,0
2016-10-11T03:25:51.633Z,0
2016-10-11T03:26:32.179Z,0
2016-10-11T03:27:12.712Z,0
2016-10-11T03:27:53.244Z,0
2016-10-11T03:28:33.775Z,0
2016-10-11T03:29:14.306Z,0
2016-10-11T03:29:54.860Z,0
2016-10-11T03:30:35.395Z,0
2016-10-11T03:31:15.922Z,0
2016-10-11T03:31:56.436Z,0
2016-10-11T03:32:36.931Z,0
2016-10-11T03:33:17.441Z,0
2016-10-11T03:33:57.970Z,0
2016-10-11T03:34:38.508Z,0
2016-10-11T03:35:19.033Z,0
2016-10-11T03:35:59.586Z,0
2016-10-11T03:36:40.106Z,0
2016-10-11T03:37:20.647Z,0
2016-10-11T03:38:01.166Z,0
2016-10-11T03:38:41.694Z,0
2016-10-11T03:39:22.233Z,0
2016-10-11T03:40:02.769Z,0
2016-10-11T03:40:43.306Z,0
2016-10-11T03:41:23.839Z,0
2016-10-11T03:42:04.378Z,0
2016-10-11T03:42:44.913Z,0
2016-10-11T03:43:25.438Z,0
2016-10-11T03:44:05.971Z,0
2016-10-11T03:44:46.506Z,0
2016-10-11T03:45:27.051Z,0
2016-10-11T03:46:07.559Z,0
2016-10-11T03:46:48.100Z,0
2016-10-11T03:47:28.625Z,0
2016-10-11T03:48:09.164Z,0
2016-10-11T03:48:49.700Z,0
2016-10-11T03:49:30.268Z,0
2016-10-11T03:50:10.799Z,0
2016-10-11T03:50:51.346Z,0
2016-10-11T03:51:31.883Z,0
2016-10-11T03:52:12.405Z,0
2016-10-11T03:52:52.945Z,0
2016-10-11T03:53:33.491Z,0
2016-10-11T03:54:14.031Z,0
2016-10-11T03:54:54.560Z,0
2016-10-11T03:55:35.139Z,0
2016-10-11T03:56:15.714Z,0
2016-10-11T03:56:56.243Z,0
2016-10-11T03:57:36.776Z,0
2016-10-11T03:58:17.303Z,0
2016-10-11T03:58:57.842Z,0
2016-10-11T03:59:38.400Z,0
2016-10-11T04:00:18.941Z,0
2016-10-11T04:00:59.464Z,0
2016-10-11T04:01:40.004Z,0
2016-10-11T04:02:20.547Z,0
2016-10-11T04:03:01.075Z,0
2016-10-11T04:03:41.610Z,0
2016-10-11T04:04:22.155Z,0
2016-10-11T04:05:02.702Z,0
2016-10-11T04:05:43.206Z,0
2016-10-11T04:06:23.728Z,0
2016-10-11T04:07:04.454Z,0
2016-10-11T04:07:45.024Z,0
2016-10-11T04:08:25.616Z,0
2016-10-11T04:09:06.149Z,0
2016-10-11T04:09:46.681Z,0
2016-10-11T04:10:27.226Z,0
2016-10-11T04:11:07.757Z,0
2016-10-11T04:11:48.298Z,0
2016-10-11T04:12:28.839Z,0
2016-10-11T04:13:09.374Z,0
2016-10-11T04:13:50.029Z,0
2016-10-11T04:14:30.568Z,0
2016-10-11T04:15:11.104Z,0
2016-10-11T04:15:51.638Z,0
2016-10-11T04:16:32.177Z,0
2016-10-11T04:17:12.713Z,0
2016-10-11T04:17:53.270Z,0
2016-10-11T04:18:33.802Z,0
2016-10-11T04:19:14.334Z,0
2016-10-11T04:19:54.861Z,0
2016-10-11T04:20:35.506Z,0
2016-10-11T04:21:16.058Z,0
2016-10-11T04:21:56.603Z,0
2016-10-11T04:22:37.140Z,0
2016-10-11T04:23:17.676Z,0
2016-10-11T04:23:58.221Z,0
2016-10-11T04:24:38.752Z,0
2016-10-11T04:25:19.281Z,0
2016-10-11T04:25:59.806Z,0
2016-10-11T04:26:40.341Z,0
2016-10-11T04:27:20.883Z,0
2016-10-11T04:28:01.420Z,0
2016-10-11T04:28:41.950Z,0
2016-10-11T04:29:22.485Z,0
2016-10-11T04:30:03.025Z,0
2016-10-11T04:30:43.564Z,0
2016-10-11T04:31:24.097Z,0
2016-10-11T04:32:04.645Z,0
2016-10-11T04:32:45.177Z,0
2016-10-11T04:33:25.713Z,0
2016-10-11T04:34:06.250Z,0
2016-10-11T04:34:46.781Z,0
2016-10-11T04:35:27.315Z,0
2016-10-11T04:36:07.851Z,0
2016-10-11T04:36:48.394Z,0
2016-10-11T04:37:28.943Z,0
2016-10-11T04:38:09.479Z,0
2016-10-11T04:38:50.021Z,0
2016-10-11T04:39:30.553Z,0
2016-10-11T04:40:11.093Z,0
2016-10-11T04:40:51.686Z,0
2016-10-11T04:41:32.199Z,0
2016-10-11T04:42:12.734Z,0
2016-10-11T04:42:53.270Z,0
2016-10-11T04:43:33.803Z,0
2016-10-11T04:44:14.337Z,0
2016-10-11T04:44:54.895Z,0
2016-10-11T04:45:35.414Z,0
2016-10-11T04:46:15.941Z,0
2016-10-11T04:46:56.485Z,0
2016-10-11T04:47:37.015Z,0
2016-10-11T04:48:17.578Z,0
2016-10-11T04:48:58.111Z,0
2016-10-11T04:49:38.658Z,0
2016-10-11T04:50:19.198Z,0
2016-10-11T04:50:59.733Z,0
2016-10-11T04:51:40.261Z,0
2016-10-11T04:52:20.788Z,0
2016-10-11T04:53:01.329Z,0
2016-10-11T04:53:41.869Z,0
2016-10-11T04:54:22.394Z,0
2016-10-11T04:55:02.980Z,0
2016-10-11T04:55:43.517Z,0
2016-10-11T04:56:24.066Z,0
2016-10-11T04:57:04.613Z,0
2016-10-11T04:57:45.148Z,0
2016-10-11T04:58:25.676Z,0
2016-10-11T04:59:06.197Z,0
2016-10-11T04:59:46.726Z,0
2016-10-11T05:00:27.269Z,0
2016-10-11T05:01:07.813Z,0
2016-10-11T05:01:48.349Z,0
2016-10-11T05:02:28.857Z,0
2016-10-11T05:03:09.393Z,0
2016-10-11T05:03:49.937Z,0
2016-10-11T05:04:30.472Z,0
2016-10-11T05:05:11.012Z,0
2016-10-11T05:05:51.546Z,0
2016-10-11T05:06:32.080Z,0
2016-10-11T05:07:12.619Z,0
2016-10-11T05:07:53.138Z,0
2016-10-11T05:08:33.681Z,0
2016-10-11T05:09:14.220Z,0
2016-10-11T05:09:54.754Z,0
2016-10-11T05:10:35.297Z,0
2016-10-11T05:11:15.817Z,0
2016-10-11T05:11:56.364Z,0
2016-10-11T05:12:36.904Z,0
2016-10-11T05:13:17.447Z,0
2016-10-11T05:13:57.995Z,0
2016-10-11T05:14:38.530Z,0
2016-10-11T05:15:19.058Z,0
2016-10-11T05:15:59.601Z,0
2016-10-11T05:16:40.129Z,0
2016-10-11T05:17:20.660Z,0
2016-10-11T05:18:01.187Z,0
2016-10-11T05:18:41.732Z,0
2016-10-11T05:19:22.267Z,0
2016-10-11T05:20:02.791Z,0
2016-10-11T05:20:43.351Z,0
2016-10-11T05:21:23.885Z,0
2016-10-11T05:22:04.413Z,0
2016-10-11T05:22:44.939Z,0
2016-10-11T05:23:25.483Z,0
2016-10-11T05:24:06.001Z,0
2016-10-11T05:24:46.557Z,0
2016-10-11T05:25:27.087Z,0
2016-10-11T05:26:07.622Z,0
2016-10-11T05:26:48.164Z,0
2016-10-11T05:27:28.702Z,0
2016-10-11T05:28:09.237Z,0
2016-10-11T05:28:49.770Z,0
2016-10-11T05:29:30.311Z,0
2016-10-11T05:30:10.840Z,0
2016-10-11T05:30:51.379Z,0
2016-10-11T05:31:31.921Z,0
2016-10-11T05:32:12.478Z,0
2016-10-11T05:32:53.019Z,0
2016-10-11T05:33:33.545Z,0
2016-10-11T05:34:14.090Z,0
2016-10-11T05:34:54.647Z,0
2016-10-11T05:35:35.196Z,0
2016-10-11T05:36:15.741Z,0
2016-10-11T05:36:56.297Z,0
2016-10-11T05:37:36.826Z,0
2016-10-11T05:38:17.363Z,0
2016-10-11T05:38:57.898Z,0
2016-10-11T05:39:38.435Z,0
2016-10-11T05:40:18.957Z,0
2016-10-11T05:40:59.498Z,0
2016-10-11T05:41:40.041Z,0
2016-10-11T05:42:20.617Z,0
2016-10-11T05:43:01.154Z,0
2016-10-11T05:43:41.705Z,0
2016-10-11T05:44:22.238Z,0
2016-10-11T05:45:02.790Z,0
2016-10-11T05:45:43.328Z,0
2016-10-11T05:46:23.850Z,0
2016-10-11T05:47:04.361Z,0
2016-10-11T05:47:44.892Z,0
2016-10-11T05:48:25.415Z,0
2016-10-11T05:49:05.951Z,0
2016-10-11T05:49:46.478Z,0
2016-10-11T05:50:27.007Z,0
2016-10-11T05:51:07.538Z,5
2016-10-11T05:51:48.036Z,5
2016-10-11T05:52:28.576Z,5
2016-10-11T05:53:09.110Z,5
2016-10-11T05:53:49.637Z,5
2016-10-11T05:54:30.174Z,5
2016-10-11T05:55:10.708Z,5
2016-10-11T05:55:51.245Z,5
2016-10-11T05:56:31.778Z,5
2016-10-11T05:57:12.310Z,5
2016-10-11T05:57:52.854Z,5
2016-10-11T05:58:33.393Z,5
2016-10-11T05:59:13.930Z,5
2016-10-11T05:59:54.464Z,10
2016-10-11T06:00:34.993Z,10
2016-10-11T06:01:15.519Z,10
2016-10-11T06:01:56.063Z,10
2016-10-11T06:02:36.593Z,10
2016-10-11T06:03:17.113Z,10
2016-10-11T06:03:57.655Z,10
2016-10-11T06:04:38.191Z,10
2016-10-11T06:05:18.728Z,10
2016-10-11T06:05:59.268Z,15
2016-10-11T06:06:39.804Z,15
2016-10-11T06:07:20.347Z,15
2016-10-11T06:08:00.865Z,15
2016-10-11T06:08:41.405Z,15
2016-10-11T06:09:21.935Z,15
2016-10-11T06:10:02.470Z,15
2016-10-11T06:10:43.009Z,15
2016-10-11T06:11:23.549Z,15
2016-10-11T06:12:04.073Z,15
2016-10-11T06:12:44.606Z,15
2016-10-11T06:13:25.153Z,15
2016-10-11T06:14:05.695Z,20
2016-10-11T06:14:46.236Z,20
2016-10-11T06:15:26.768Z,20
2016-10-11T06:16:07.302Z,20
2016-10-11T06:16:47.835Z,20
2016-10-11T06:17:28.370Z,20
2016-10-11T06:18:08.898Z,20
2016-10-11T06:18:49.430Z,20
2016-10-11T06:19:29.975Z,20
2016-10-11T06:20:10.522Z,20
2016-10-11T06:20:51.065Z,20
2016-10-11T06:21:31.585Z,20
2016-10-11T06:22:12.125Z,20
2016-10-11T06:22:52.663Z,20
2016-10-11T06:23:33.196Z,20
2016-10-11T06:24:13.723Z,20
2016-10-11T06:24:54.259Z,25
2016-10-11T06:25:34.793Z,25
2016-10-11T06:26:15.362Z,25
2016-10-11T06:26:55.893Z,25
2016-10-11T06:27:36.430Z,25
2016-10-11T06:28:16.935Z,25
2016-10-11T06:28:57.474Z,25
2016-10-11T06:29:38.022Z,25
2016-10-11T06:30:18.536Z,30
2016-10-11T06:30:59.076Z,25
2016-10-11T06:31:39.624Z,30
2016-10-11T06:32:20.154Z,30
2016-10-11T06:33:00.685Z,30
2016-10-11T06:33:41.221Z,30
2016-10-11T06:34:21.783Z,30
2016-10-11T06:35:02.288Z,30
2016-10-11T06:35:42.820Z,30
2016-10-11T06:36:23.358Z,30
2016-10-11T06:37:03.906Z,30
2016-10-11T06:37:44.441Z,35
2016-10-11T06:38:24.972Z,35
2016-10-11T06:39:05.517Z,35
2016-10-11T06:39:46.052Z,35
2016-10-11T06:40:26.590Z,35
2016-10-11T06:41:07.124Z,35
2016-10-11T06:41:47.667Z,35
2016-10-11T06:42:28.206Z,35
2016-10-11T06:43:08.744Z,35
2016-10-11T06:43:49.286Z,35
2016-10-11T06:44:29.824Z,35
2016-10-11T06:45:10.358Z,40
2016-10-11T06:45:50.895Z,40
2016-10-11T06:46:31.431Z,40
2016-10-11T06:47:11.972Z,40
2016-10-11T06:47:52.523Z,40
2016-10-11T06:48:33.060Z,40
2016-10-11T06:49:13.597Z,40
2016-10-11T06:49:54.139Z,40
2016-10-11T06:50:34.684Z,40
2016-10-11T06:51:15.241Z,40
2016-10-11T06:51:55.783Z,40
2016-10-11T06:52:36.315Z,40
2016-10-11T06:53:16.854Z,45
2016-10-11T06:53:57.387Z,45
2016-10-11T06:54:37.928Z,45
2016-10-11T06:55:18.466Z,45
2016-10-11T06:55:59.005Z,45
2016-10-11T06:56:39.533Z,45
2016-10-11T06:57:20.065Z,45
2016-10-11T06:58:00.599Z,45
2016-10-11T06:58:41.140Z,45
2016-10-11T06:59:21.676Z,50
2016-10-11T07:00:02.228Z,50
2016-10-11T07:00:42.770Z,50
2016-10-11T07:01:23.309Z,45
2016-10-11T07:02:03.837Z,45
2016-10-11T07:02:44.379Z,45
2016-10-11T07:03:24.904Z,45
2016-10-11T07:04:05.436Z,45
2016-10-11T07:04:45.976Z,50
2016-10-11T07:05:26.511Z,50
2016-10-11T07:06:07.051Z,55
2016-10-11T07:06:47.601Z,55
2016-10-11T07:07:28.128Z,50
2016-10-11T07:08:08.670Z,50
2016-10-11T07:08:49.207Z,50
2016-10-11T07:09:29.750Z,50
2016-10-11T07:10:10.289Z,55
2016-10-11T07:10:50.820Z,55
2016-10-11T07:11:31.343Z,55
2016-10-11T07:12:11.882Z,55
2016-10-11T07:12:52.425Z,60
2016-10-11T07:13:32.962Z,60
2016-10-11T07:14:13.502Z,60
2016-10-11T07:14:54.026Z,60
2016-10-11T07:15:34.570Z,65
2016-10-11T07:16:15.103Z,65
2016-10-11T07:16:55.649Z,65
2016-10-11T07:17:36.179Z,70
2016-10-11T07:18:16.710Z,70
2016-10-11T07:18:57.246Z,70
2016-10-11T07:19:37.774Z,70
2016-10-11T07:20:18.300Z,75
2016-10-11T07:20:58.830Z,80
2016-10-11T07:21:39.371Z,80
2016-10-11T07:22:19.909Z,85
2016-10-11T07:23:00.443Z,85
2016-10-11T07:23:40.979Z,85
2016-10-11T07:24:21.525Z,90
2016-10-11T07:25:02.056Z,95
2016-10-11T07:25:42.609Z,100
2016-10-11T07:26:23.154Z,105
2016-10-11T07:27:03.684Z,105
2016-10-11T07:27:44.251Z,105
2016-10-11T07:28:24.791Z,110
2016-10-11T07:29:05.359Z,110
2016-10-11T07:29:45.927Z,110
2016-10-11T07:30:26.481Z,110
2016-10-11T07:31:07.020Z,115
2016-10-11T07:31:47.564Z,115
2016-10-11T07:32:28.111Z,115
2016-10-11T07:33:08.650Z,120
2016-10-11T07:33:49.186Z,120
2016-10-11T07:34:29.738Z,125
2016-10-11T07:35:10.273Z,125
2016-10-11T07:35:50.807Z,125
2016-10-11T07:36:31.347Z,125
2016-10-11T07:37:11.926Z,125
2016-10-11T07:37:52.452Z,130
2016-10-11T07:38:33.012Z,120
2016-10-11T07:39:13.555Z,120
2016-10-11T07:39:54.112Z,120
2016-10-11T07:40:34.657Z,120
2016-10-11T07:41:15.199Z,115
2016-10-11T07:41:55.732Z,115
2016-10-11T07:42:36.259Z,115
2016-10-11T07:43:16.791Z,115
2016-10-11T07:43:57.331Z,115
2016-10-11T07:44:37.851Z,120
2016-10-11T07:45:18.400Z,125
2016-10-11T07:45:58.942Z,125
2016-10-11T07:46:39.476Z,130
2016-10-11T07:47:20.010Z,130
2016-10-11T07:48:00.547Z,130
2016-10-11T07:48:41.086Z,130
2016-10-11T07:49:21.663Z,135
2016-10-11T07:50:02.231Z,135
2016-10-11T07:50:42.787Z,135
2016-10-11T07:51:23.355Z,135
2016-10-11T07:52:03.930Z,135
2016-10-11T07:52:44.515Z,135
2016-10-11T07:53:25.111Z,135
2016-10-11T07:54:05.659Z,135
2016-10-11T07:54:46.216Z,130
2016-10-11T07:55:26.775Z,130
2016-10-11T07:56:07.322Z,125
2016-10-11T07:56:47.912Z,125
2016-10-11T07:57:28.460Z,125
2016-10-11T07:58:08.987Z,125
2016-10-11T07:58:49.568Z,125
2016-10-11T07:59:30.090Z,125
2016-10-11T08:00:10.618Z,130
2016-10-11T08:00:51.181Z,135
2016-10-11T08:01:31.720Z,135
2016-10-11T08:02:12.249Z,140
2016-10-11T08:02:52.781Z,145
2016-10-11T08:03:33.318Z,140
2016-10-11T08:04:13.903Z,140
2016-10-11T08:04:54.454Z,145
2016-10-11T08:05:34.993Z,150
2016-10-11T08:06:15.539Z,155
2016-10-11T08:06:56.065Z,155
2016-10-11T08:07:36.604Z,160
2016-10-11T08:08:17.193Z,160
2016-10-11T08:08:57.749Z,165
2016-10-11T08:09:38.282Z,165
2016-10-11T08:10:18.813Z,170
2016-10-11T08:10:59.340Z,170
2016-10-11T08:11:39.876Z,170
2016-10-11T08:12:20.436Z,170
2016-10-11T08:13:00.998Z,170
2016-10-11T08:13:41.563Z,165
2016-10-11T08:14:22.101Z,165
2016-10-11T08:15:02.669Z,160
2016-10-11T08:15:43.194Z,160
2016-10-11T08:16:23.743Z,160
2016-10-11T08:17:04.286Z,160
2016-10-11T08:17:44.896Z,160
2016-10-11T08:18:25.419Z,165
2016-10-11T08:19:05.946Z,165
2016-10-11T08:19:46.512Z,170
2016-10-11T08:20:27.034Z,170
2016-10-11T08:21:07.618Z,170
2016-10-11T08:21:48.158Z,170
2016-10-11T08:22:28.698Z,165
2016-10-11T08:23:09.228Z,165
2016-10-11T08:23:49.754Z,160
2016-10-11T08:24:30.289Z,160
2016-10-11T08:25:10.837Z,155
2016-10-11T08:25:51.428Z,160
2016-10-11T08:26:31.961Z,165
2016-10-11T08:27:12.533Z,170
2016-10-11T08:27:53.146Z,175
2016-10-11T08:28:33.709Z,180
2016-10-11T08:29:14.264Z,185
2016-10-11T08:29:54.800Z,190
2016-10-11T08:30:35.374Z,195
2016-10-11T08:31:15.966Z,195
2016-10-11T08:31:56.522Z,195
2016-10-11T08:32:37.052Z,195
2016-10-11T08:33:17.589Z,200
2016-10-11T08:33:58.147Z,200
2016-10-11T08:34:38.697Z,200
2016-10-11T08:35:19.211Z,205
2016-10-11T08:35:59.745Z,210
2016-10-11T08:36:40.272Z,215
2016-10-11T08:37:20.847Z,225
2016-10-11T08:38:01.382Z,225
2016-10-11T08:38:41.919Z,230
2016-10-11T08:39:22.479Z,230
2016-10-11T08:40:03.055Z,220
2016-10-11T08:40:43.596Z,220
2016-10-11T08:41:24.140Z,215
2016-10-11T08:42:04.687Z,210
2016-10-11T08:42:45.241Z,210
2016-10-11T08:43:25.790Z,215
2016-10-11T08:44:06.332Z,220
2016-10-11T08:44:46.870Z,220
2016-10-11T08:45:27.425Z,230
2016-10-11T08:46:07.994Z,240
2016-10-11T08:46:48.529Z,250
2016-10-11T08:47:29.078Z,240
2016-10-11T08:48:09.611Z,235
2016-10-11T08:48:50.178Z,230
2016-10-11T08:49:30.745Z,230
2016-10-11T08:50:11.308Z,225
2016-10-11T08:50:51.842Z,225
2016-10-11T08:51:32.394Z,220
2016-10-11T08:52:12.930Z,215
2016-10-11T08:52:53.475Z,210
2016-10-11T08:53:34.010Z,215
2016-10-11T08:54:14.561Z,215
2016-10-11T08:54:55.119Z,220
2016-10-11T08:55:35.664Z,225
2016-10-11T08:56:16.196Z,240
2016-10-11T08:56:56.737Z,250
2016-10-11T08:57:37.279Z,255
2016-10-11T08:58:17.820Z,255
2016-10-11T08:58:58.362Z,260
2016-10-11T08:59:38.893Z,260
2016-10-11T09:00:19.464Z,260
2016-10-11T09:00:59.999Z,260
2016-10-11T09:01:40.544Z,255
2016-10-11T09:02:21.074Z,250
2016-10-11T09:03:01.604Z,240
2016-10-11T09:03:42.134Z,245
2016-10-11T09:04:22.668Z,240
2016-10-11T09:05:03.207Z,240
2016-10-11T09:05:43.751Z,240
2016-10-11T09:06:24.300Z,240
2016-10-11T09:07:04.823Z,235
2016-10-11T09:07:45.356Z,230
2016-10-11T09:08:25.893Z,230
2016-10-11T09:09:06.436Z,230
2016-10-11T09:09:46.974Z,240
2016-10-11T09:10:27.503Z,240
2016-10-11T09:11:08.041Z,255
2016-10-11T09:11:48.596Z,260
2016-10-11T09:12:29.130Z,265
2016-10-11T09:13:09.678Z,265
2016-10-11T09:13:50.207Z,265
2016-10-11T09:14:30.739Z,260
2016-10-11T09:15:11.276Z,260
2016-10-11T09:15:51.812Z,265
2016-10-11T09:16:32.361Z,265
2016-10-11T09:17:12.899Z,270
2016-10-11T09:17:53.437Z,270
2016-10-11T09:18:33.983Z,275
2016-10-11T09:19:14.512Z,275
2016-10-11T09:19:55.049Z,275
2016-10-11T09:20:35.583Z,265
2016-10-11T09:21:16.150Z,265
2016-10-11T09:21:56.688Z,265
2016-10-11T09:22:37.227Z,270
2016-10-11T09:23:17.783Z,265
2016-10-11T09:23:58.323Z,260
2016-10-11T09:24:38.860Z,265
2016-10-11T09:25:19.404Z,270
2016-10-11T09:25:59.940Z,280
2016-10-11T09:26:40.469Z,290
2016-10-11T09:27:21.008Z,295
2016-10-11T09:28:01.549Z,300
2016-10-11T09:28:42.078Z,305
2016-10-11T09:29:22.622Z,315
2016-10-11T09:30:03.156Z,310
2016-10-11T09:30:43.694Z,310
2016-10-11T09:31:24.232Z,310
2016-10-11T09:32:04.761Z,310
2016-10-11T09:32:45.306Z,310
2016-10-11T09:33:25.841Z,305
2016-10-11T09:34:06.394Z,300
2016-10-11T09:34:46.926Z,305
2016-10-11T09:35:27.449Z,305
2016-10-11T09:36:07.989Z,305
2016-10-11T09:36:48.535Z,305
2016-10-11T09:37:29.077Z,305
2016-10-11T09:38:09.609Z,305
2016-10-11T09:38:50.139Z,325
2016-10-11T09:39:30.674Z,330
2016-10-11T09:40:11.219Z,315
2016-10-11T09:40:51.756Z,315
2016-10-11T09:41:32.306Z,290
2016-10-11T09:42:12.833Z,270
2016-10-11T09:42:53.361Z,270
2016-10-11T09:43:33.900Z,260
2016-10-11T09:44:14.432Z,270
2016-10-11T09:44:54.958Z,270
2016-10-11T09:45:35.526Z,265
2016-10-11T09:46:16.074Z,265
2016-10-11T09:46:56.593Z,260
2016-10-11T09:47:37.123Z,245
2016-10-11T09:48:17.655Z,245
2016-10-11T09:48:58.216Z,265
2016-10-11T09:49:38.767Z,280
2016-10-11T09:50:19.297Z,295
2016-10-11T09:50:59.840Z,290
2016-10-11T09:51:40.384Z,295
2016-10-11T09:52:20.925Z,305
2016-10-11T09:53:01.436Z,330
2016-10-11T09:53:41.971Z,340
2016-10-11T09:54:22.498Z,350
2016-10-11T09:55:03.060Z,355
2016-10-11T09:55:43.604Z,400
2016-10-11T09:56:24.136Z,425
2016-10-11T09:57:04.673Z,375
2016-10-11T09:57:45.231Z,345
2016-10-11T09:58:25.752Z,325
2016-10-11T09:59:06.288Z,315
2016-10-11T09:59:46.825Z,335
2016-10-11T10:00:27.365Z,375
2016-10-11T10:01:07.905Z,425
2016-10-11T10:01:48.447Z,420
2016-10-11T10:02:28.992Z,375
2016-10-11T10:03:09.536Z,340